createdAt,value
2023-06-25T00:00:19.401Z,33.67
2023-06-25T00:02:52.070Z,33.83
2023-06-25T00:05:25.626Z,36.20
2023-06-25T00:08:00.923Z,32.28
2023-06-25T00:10:35.802Z,31.60
2023-06-25T00:13:11.058Z,33.13
2023-06-25T00:15:44.189Z,31.20
2023-06-25T00:18:17.491Z,33.75
2023-06-25T00:20:51.868Z,35.50
2023-06-25T00:23:28.333Z,32.78
2023-06-25T00:26:01.821Z,30.35
2023-06-25T00:28:35.087Z,33.20
2023-06-25T00:31:08.553Z,36.10
2023-06-25T00:33:41.749Z,33.80
2023-06-25T00:36:14.857Z,31.17
2023-06-25T00:38:50.816Z,32.13
2023-06-25T00:41:24.240Z,35.13
2023-06-25T00:43:58.116Z,35.03
2023-06-25T00:46:32.887Z,29.17
2023-06-25T00:49:08.123Z,32.97
2023-06-25T00:51:42.755Z,28.13
2023-06-25T00:54:18.371Z,29.92
2023-06-25T00:56:52.018Z,33.92
2023-06-25T00:59:26.921Z,34.10
2023-06-25T01:02:05.973Z,33.15
2023-06-25T01:04:45.384Z,35.30
2023-06-25T01:07:25.538Z,29.42
2023-06-25T01:10:04.369Z,36.78
2023-06-25T01:12:38.419Z,28.58
2023-06-25T01:15:15.048Z,31.98
2023-06-25T01:17:51.694Z,28.65
2023-06-25T01:20:25.115Z,28.10
2023-06-25T01:23:01.534Z,26.40
2023-06-25T01:25:34.950Z,29.02
2023-06-25T01:28:09.112Z,30.45
2023-06-25T01:30:42.339Z,33.67
2023-06-25T01:33:21.894Z,29.35
2023-06-25T01:35:55.765Z,31.67
2023-06-25T01:38:32.087Z,32.83
2023-06-25T01:41:05.823Z,34.78
2023-06-25T01:43:39.035Z,33.17
2023-06-25T01:46:12.220Z,31.95
2023-06-25T01:48:45.561Z,38.28
2023-06-25T01:51:19.734Z,37.92
2023-06-25T01:53:55.122Z,34.65
2023-06-25T01:56:28.022Z,43.63
2023-06-25T01:59:01.235Z,36.42
2023-06-25T02:01:34.510Z,41.42
2023-06-25T02:04:09.571Z,40.13
2023-06-25T02:06:42.804Z,45.80
2023-06-25T02:09:19.042Z,51.00
2023-06-25T02:11:53.714Z,41.78
2023-06-25T02:14:27.514Z,45.97
2023-06-25T02:17:01.068Z,40.15
2023-06-25T02:19:34.401Z,43.67
2023-06-25T02:22:07.438Z,43.60
2023-06-25T02:24:42.960Z,42.33
2023-06-25T02:27:17.309Z,44.03
2023-06-25T02:29:51.403Z,48.10
2023-06-25T02:32:24.684Z,51.30
2023-06-25T02:34:58.002Z,50.90
2023-06-25T02:37:32.719Z,50.28
2023-06-25T02:40:08.988Z,54.97
2023-06-25T02:42:44.057Z,52.25
2023-06-25T02:45:19.884Z,54.70
2023-06-25T02:47:54.435Z,60.20
2023-06-25T02:50:28.058Z,62.58
2023-06-25T02:53:02.115Z,52.05
2023-06-25T02:55:41.675Z,59.75
2023-06-25T02:58:15.619Z,61.92
2023-06-25T03:00:50.425Z,59.03
2023-06-25T03:03:23.910Z,52.03
2023-06-25T03:05:57.311Z,51.60
2023-06-25T03:08:32.846Z,61.88
2023-06-25T03:11:09.922Z,63.83
2023-06-25T03:13:43.654Z,58.30
2023-06-25T03:16:17.094Z,55.08
2023-06-25T03:18:50.815Z,54.92
2023-06-25T03:21:24.878Z,51.83
2023-06-25T03:24:00.776Z,66.63
2023-06-25T03:26:36.790Z,54.05
2023-06-25T03:29:10.632Z,47.20
2023-06-25T03:31:47.614Z,48.10
2023-06-25T03:34:24.739Z,50.78
2023-06-25T03:37:02.055Z,57.72
2023-06-25T03:39:35.909Z,52.97
2023-06-25T03:42:14.513Z,53.92
2023-06-25T03:44:52.503Z,52.08
2023-06-25T03:47:32.860Z,57.70
2023-06-25T03:50:08.309Z,57.47
2023-06-25T03:52:42.952Z,52.15
2023-06-25T03:55:16.902Z,51.17
2023-06-25T03:57:53.565Z,54.78
2023-06-25T04:00:28.234Z,51.00
2023-06-25T04:03:01.653Z,48.67
2023-06-25T04:05:36.344Z,47.92
2023-06-25T04:08:12.877Z,50.13
2023-06-25T04:10:55.118Z,49.63
2023-06-25T04:13:32.480Z,58.40
2023-06-25T04:16:06.420Z,61.80
2023-06-25T04:18:40.250Z,57.60
2023-06-25T04:21:13.665Z,66.97
2023-06-25T04:23:46.983Z,54.75
2023-06-25T04:26:19.949Z,67.43
2023-06-25T04:28:55.848Z,63.55
2023-06-25T04:31:30.955Z,56.58
2023-06-25T04:34:04.543Z,55.38
2023-06-25T04:36:38.321Z,57.92
2023-06-25T04:39:12.787Z,61.20
2023-06-25T04:41:47.771Z,52.03
2023-06-25T04:44:24.144Z,46.83
2023-06-25T04:46:57.578Z,56.17
2023-06-25T04:49:30.798Z,54.80
2023-06-25T04:52:04.325Z,53.30
2023-06-25T04:54:39.124Z,54.97
2023-06-25T04:57:12.763Z,46.60
2023-06-25T04:59:50.217Z,51.15
2023-06-25T05:02:23.890Z,53.58
2023-06-25T05:04:57.626Z,55.00
2023-06-25T05:07:31.174Z,55.75
2023-06-25T05:10:05.171Z,63.38
2023-06-25T05:12:39.165Z,53.67
2023-06-25T05:15:15.604Z,57.05
2023-06-25T05:17:50.031Z,56.55
2023-06-25T05:20:24.629Z,60.15
2023-06-25T05:22:58.235Z,52.50
2023-06-25T05:25:31.639Z,56.50
2023-06-25T05:28:07.616Z,58.92
2023-06-25T05:30:43.615Z,60.17
2023-06-25T05:33:17.624Z,56.47
2023-06-25T05:35:51.204Z,62.00
2023-06-25T05:38:24.731Z,58.78
2023-06-25T05:40:58.782Z,59.63
2023-06-25T05:43:32.503Z,61.60
2023-06-25T05:46:08.395Z,56.88
2023-06-25T05:48:42.448Z,58.15
2023-06-25T05:51:19.960Z,66.88
2023-06-25T05:53:57.800Z,58.50
2023-06-25T05:56:31.769Z,54.17
2023-06-25T05:59:05.119Z,60.03
2023-06-25T06:01:41.122Z,55.47
2023-06-25T06:04:14.856Z,62.60
2023-06-25T06:06:48.181Z,51.90
2023-06-25T06:09:23.023Z,51.35
2023-06-25T06:11:56.727Z,56.78
2023-06-25T06:14:34.088Z,51.45
2023-06-25T06:17:12.815Z,52.63
2023-06-25T06:19:47.484Z,49.88
2023-06-25T06:22:21.273Z,56.97
2023-06-25T06:24:55.160Z,53.13
2023-06-25T06:27:28.424Z,47.70
2023-06-25T06:30:02.411Z,54.65
2023-06-25T06:32:37.579Z,50.55
2023-06-25T06:35:12.793Z,52.35
2023-06-25T06:37:47.978Z,49.83
2023-06-25T06:40:22.057Z,53.88
2023-06-25T06:42:55.778Z,54.72
2023-06-25T06:45:30.157Z,48.20
2023-06-25T06:48:07.528Z,43.13
2023-06-25T06:50:42.473Z,46.67
2023-06-25T06:53:15.834Z,43.03
2023-06-25T06:55:50.964Z,42.63
2023-06-25T06:58:24.949Z,43.08
2023-06-25T07:00:58.887Z,48.67
2023-06-25T07:03:35.467Z,53.22
2023-06-25T07:06:08.902Z,45.92
2023-06-25T07:08:42.171Z,41.15
2023-06-25T07:11:20.104Z,47.78
2023-06-25T07:13:53.873Z,48.60
2023-06-25T07:16:30.031Z,47.80
2023-06-25T07:19:05.592Z,44.90
2023-06-25T07:21:40.956Z,43.05
2023-06-25T07:24:14.894Z,49.33
2023-06-25T07:26:48.081Z,45.67
2023-06-25T07:29:21.296Z,44.45
2023-06-25T07:31:55.338Z,48.42
2023-06-25T07:34:30.550Z,48.72
2023-06-25T07:37:04.183Z,43.92
2023-06-25T07:39:38.209Z,40.50
2023-06-25T07:42:13.700Z,42.05
2023-06-25T07:44:56.592Z,41.85
2023-06-25T07:47:32.528Z,42.60
2023-06-25T07:50:09.636Z,38.38
2023-06-25T07:52:42.806Z,40.22
2023-06-25T07:55:16.842Z,44.67
2023-06-25T07:57:50.254Z,37.35
2023-06-25T08:00:24.411Z,39.47
2023-06-25T08:02:58.287Z,43.40
2023-06-25T08:05:35.862Z,42.92
2023-06-25T08:08:11.313Z,41.03
2023-06-25T08:10:44.882Z,41.20
2023-06-25T08:13:18.799Z,41.88
2023-06-25T08:15:52.268Z,44.50
2023-06-25T08:18:25.638Z,47.50
2023-06-25T08:21:01.246Z,43.63
2023-06-25T08:23:35.250Z,42.70
2023-06-25T08:26:11.781Z,49.70
2023-06-25T08:28:47.825Z,50.22
2023-06-25T08:31:22.728Z,42.47
2023-06-25T08:33:56.512Z,46.40
2023-06-25T08:36:31.384Z,43.78
2023-06-25T08:39:04.203Z,44.20
2023-06-25T08:41:37.462Z,42.80
2023-06-25T08:44:11.449Z,45.13
2023-06-25T08:46:51.272Z,50.20
2023-06-25T08:49:28.893Z,37.38
2023-06-25T08:52:08.503Z,42.60
2023-06-25T08:54:43.032Z,40.90
2023-06-25T08:57:17.937Z,41.78
2023-06-25T08:59:51.280Z,45.58
2023-06-25T09:02:24.913Z,42.80
2023-06-25T09:05:07.180Z,41.40
2023-06-25T09:07:49.680Z,39.53
2023-06-25T09:10:25.044Z,40.55
2023-06-25T09:12:59.080Z,36.83
2023-06-25T09:15:35.186Z,47.67
2023-06-25T09:18:09.502Z,38.55
2023-06-25T09:20:52.911Z,44.67
2023-06-25T09:23:31.207Z,45.33
2023-06-25T09:26:12.785Z,38.45
2023-06-25T09:28:54.247Z,40.97
2023-06-25T09:31:27.799Z,40.13
2023-06-25T09:34:01.563Z,38.85
2023-06-25T09:36:39.490Z,41.05
2023-06-25T09:39:16.685Z,39.17
2023-06-25T09:41:51.368Z,45.35
2023-06-25T09:44:27.965Z,41.78
2023-06-25T09:47:08.018Z,36.97
2023-06-25T09:49:43.900Z,39.00
2023-06-25T09:52:19.005Z,37.67
2023-06-25T09:54:56.076Z,41.58
2023-06-25T09:57:30.587Z,33.65
2023-06-25T10:00:04.360Z,41.20
2023-06-25T10:02:44.594Z,40.95
2023-06-25T10:05:18.921Z,42.90
2023-06-25T10:07:52.646Z,38.25
2023-06-25T10:10:31.702Z,38.50
2023-06-25T10:13:08.470Z,35.70
2023-06-25T10:15:42.385Z,36.35
2023-06-25T10:18:16.845Z,39.05
2023-06-25T10:20:52.416Z,38.33
2023-06-25T10:23:29.980Z,35.80
2023-06-25T10:26:06.804Z,38.90
2023-06-25T10:28:40.715Z,37.97
2023-06-25T10:31:23.510Z,47.08
2023-06-25T10:34:07.073Z,38.28
2023-06-25T10:36:40.853Z,38.25
2023-06-25T10:39:15.833Z,34.47
2023-06-25T10:41:52.015Z,36.22
2023-06-25T10:44:32.457Z,31.63
2023-06-25T10:47:10.704Z,35.35
2023-06-25T10:49:44.406Z,35.65
2023-06-25T10:52:19.759Z,34.85
2023-06-25T10:54:53.637Z,32.35
2023-06-25T10:57:30.496Z,32.28
2023-06-25T11:00:05.954Z,36.33
2023-06-25T11:02:39.773Z,32.42
2023-06-25T11:05:14.046Z,34.80
2023-06-25T11:07:47.654Z,32.58
2023-06-25T11:10:20.940Z,32.22
2023-06-25T11:12:56.242Z,41.85
2023-06-25T11:15:29.604Z,33.53
2023-06-25T11:18:05.839Z,35.75
2023-06-25T11:20:39.811Z,33.25
2023-06-25T11:23:15.414Z,32.92
2023-06-25T11:25:49.384Z,29.75
2023-06-25T11:28:28.856Z,34.53
2023-06-25T11:31:04.307Z,33.35
2023-06-25T11:33:37.720Z,31.60
2023-06-25T11:36:16.404Z,35.42
2023-06-25T11:38:50.222Z,31.85
2023-06-25T11:41:34.373Z,36.88
2023-06-25T11:44:20.532Z,36.90
2023-06-25T11:46:56.679Z,32.25
2023-06-25T11:49:31.834Z,45.33
2023-06-25T11:52:09.652Z,33.25
2023-06-25T11:54:42.994Z,42.97
2023-06-25T11:57:18.687Z,38.38
2023-06-25T11:59:53.861Z,36.88
2023-06-25T12:02:40.611Z,37.00
2023-06-25T12:05:18.428Z,36.03
2023-06-25T12:07:51.978Z,33.05
2023-06-25T12:10:25.869Z,34.50
2023-06-25T12:12:58.718Z,31.10
2023-06-25T12:15:34.363Z,33.85
2023-06-25T12:18:07.701Z,29.67
2023-06-25T12:20:42.551Z,26.75
2023-06-25T12:23:16.557Z,31.92
2023-06-25T12:25:49.476Z,32.15
2023-06-25T12:28:22.339Z,31.42
2023-06-25T12:30:58.170Z,30.48
2023-06-25T12:33:33.090Z,33.00
2023-06-25T12:36:06.590Z,26.75
2023-06-25T12:38:40.518Z,29.25
2023-06-25T12:41:15.237Z,31.33
2023-06-25T12:43:49.848Z,38.97
2023-06-25T12:46:24.932Z,42.75
2023-06-25T12:48:58.216Z,50.95
2023-06-25T12:51:33.763Z,56.25
2023-06-25T12:54:07.479Z,56.88
2023-06-25T12:56:41.268Z,53.20
2023-06-25T12:59:15.149Z,54.55
2023-06-25T13:01:51.188Z,44.80
2023-06-25T13:04:24.959Z,49.75
2023-06-25T13:06:58.934Z,48.92
2023-06-25T13:09:33.251Z,53.17
2023-06-25T13:12:08.697Z,52.72
2023-06-25T13:14:45.068Z,51.47
2023-06-25T13:17:21.557Z,46.37
2023-06-25T13:19:55.221Z,44.97
2023-06-25T13:22:29.391Z,47.95
2023-06-25T13:25:02.981Z,50.37
2023-06-25T13:27:38.155Z,48.47
2023-06-25T13:30:12.480Z,58.13
2023-06-25T13:32:48.119Z,46.38
2023-06-25T13:35:21.768Z,48.85
2023-06-25T13:37:56.839Z,46.73
2023-06-25T13:40:30.377Z,50.87
2023-06-25T13:43:03.991Z,52.87
2023-06-25T13:45:37.101Z,52.00
2023-06-25T13:48:13.601Z,57.37
2023-06-25T13:50:47.792Z,54.57
2023-06-25T13:53:21.743Z,53.23
2023-06-25T13:55:56.666Z,53.80
2023-06-25T13:58:31.127Z,54.73
2023-06-25T14:01:06.151Z,57.57
2023-06-25T14:03:42.020Z,48.77
2023-06-25T14:06:15.152Z,50.30
2023-06-25T14:08:48.632Z,49.00
2023-06-25T14:11:26.156Z,47.73
2023-06-25T14:13:59.081Z,41.73
2023-06-25T14:16:34.383Z,50.07
2023-06-25T14:19:24.780Z,40.67
2023-06-25T14:22:02.743Z,42.17
2023-06-25T14:24:36.019Z,44.70
2023-06-25T14:27:09.499Z,37.40
2023-06-25T14:29:43.028Z,36.20
2023-06-25T14:32:16.837Z,39.93
2023-06-25T14:34:51.843Z,39.30
2023-06-25T14:37:24.907Z,40.33
2023-06-25T14:39:58.666Z,44.87
2023-06-25T14:42:35.055Z,51.37
2023-06-25T14:45:08.615Z,52.70
2023-06-25T14:47:42.990Z,60.47
2023-06-25T14:50:18.784Z,52.63
2023-06-25T14:52:54.046Z,54.70
2023-06-25T14:55:37.876Z,58.70
2023-06-25T14:58:14.073Z,53.47
2023-06-25T15:00:47.521Z,57.17
2023-06-25T15:03:21.086Z,54.90
2023-06-25T15:06:08.398Z,55.20
2023-06-25T15:08:42.669Z,52.37
2023-06-25T15:11:16.576Z,56.90
2023-06-25T15:13:53.374Z,60.00
2023-06-25T15:16:28.664Z,60.33
2023-06-25T15:19:04.355Z,62.10
2023-06-25T15:21:40.057Z,66.63
2023-06-25T15:24:14.676Z,64.60
2023-06-25T15:26:50.242Z,67.03
2023-06-25T15:29:23.464Z,67.40
2023-06-25T15:31:56.462Z,64.47
2023-06-25T15:34:29.393Z,64.87
2023-06-25T15:37:05.512Z,69.73
2023-06-25T15:39:39.115Z,61.27
2023-06-25T15:42:12.523Z,54.67
2023-06-25T15:44:45.845Z,51.70
2023-06-25T15:47:19.700Z,60.43
2023-06-25T15:49:55.126Z,55.40
2023-06-25T15:52:30.800Z,58.27
2023-06-25T15:55:06.024Z,58.77
2023-06-25T15:57:42.418Z,60.87
2023-06-25T16:00:16.310Z,63.93
2023-06-25T16:02:49.706Z,60.30
2023-06-25T16:05:23.813Z,60.43
2023-06-25T16:08:00.167Z,64.63
2023-06-25T16:10:33.495Z,57.93
2023-06-25T16:13:08.010Z,64.73
2023-06-25T16:15:44.773Z,58.37
2023-06-25T16:18:19.390Z,58.83
2023-06-25T16:20:53.054Z,57.93
2023-06-25T16:23:28.798Z,62.70
2023-06-25T16:26:02.801Z,62.80
2023-06-25T16:28:40.350Z,66.30
2023-06-25T16:31:14.307Z,62.70
2023-06-25T16:33:49.264Z,59.87
2023-06-25T16:36:22.611Z,62.90
2023-06-25T16:38:59.349Z,59.93
2023-06-25T16:41:33.063Z,63.47
2023-06-25T16:44:06.396Z,64.83
2023-06-25T16:46:42.882Z,61.83
2023-06-25T16:49:17.860Z,59.73
2023-06-25T16:51:51.710Z,63.00
2023-06-25T16:54:27.014Z,63.40
2023-06-25T16:57:02.949Z,69.47
2023-06-25T16:59:36.231Z,68.57
2023-06-25T17:02:10.087Z,66.60
2023-06-25T17:04:44.477Z,71.90
2023-06-25T17:07:18.011Z,66.97
2023-06-25T17:09:54.820Z,64.50
2023-06-25T17:12:28.385Z,66.27
2023-06-25T17:15:03.098Z,69.40
2023-06-25T17:17:36.751Z,67.27
2023-06-25T17:20:11.155Z,66.80
2023-06-25T17:22:44.810Z,62.27
2023-06-25T17:25:20.510Z,61.00
2023-06-25T17:27:54.384Z,63.13
2023-06-25T17:30:27.858Z,64.00
2023-06-25T17:33:01.725Z,59.10
2023-06-25T17:35:35.846Z,60.27
2023-06-25T17:38:09.523Z,58.50
2023-06-25T17:40:45.188Z,59.23
2023-06-25T17:43:22.296Z,59.03
2023-06-25T17:45:55.997Z,65.00
2023-06-25T17:48:30.439Z,66.30
2023-06-25T17:51:04.233Z,64.67
2023-06-25T17:53:40.209Z,68.97
2023-06-25T17:56:15.845Z,60.07
2023-06-25T17:58:49.486Z,63.97
2023-06-25T18:01:23.942Z,58.87
2023-06-25T18:03:57.573Z,57.40
2023-06-25T18:06:31.077Z,55.53
2023-06-25T18:09:04.329Z,53.00
2023-06-25T18:11:39.800Z,65.27
2023-06-25T18:14:13.500Z,62.57
2023-06-25T18:16:47.604Z,68.60
2023-06-25T18:19:22.796Z,63.47
2023-06-25T18:21:56.482Z,63.83
2023-06-25T18:24:30.541Z,67.10
2023-06-25T18:27:06.069Z,66.90
2023-06-25T18:29:39.445Z,64.63
2023-06-25T18:32:13.956Z,66.93
2023-06-25T18:34:47.678Z,65.13
2023-06-25T18:37:24.705Z,67.60
2023-06-25T18:40:00.982Z,64.10
2023-06-25T18:42:37.788Z,66.17
2023-06-25T18:45:15.049Z,65.70
2023-06-25T18:47:50.916Z,56.37
2023-06-25T18:50:25.622Z,64.30
2023-06-25T18:52:58.956Z,62.10
2023-06-25T18:55:33.009Z,64.67
2023-06-25T18:58:08.221Z,65.03
2023-06-25T19:00:43.799Z,69.57
2023-06-25T19:03:18.608Z,64.63
2023-06-25T19:05:52.437Z,70.00
2023-06-25T19:08:27.993Z,72.40
2023-06-25T19:11:01.684Z,64.17
2023-06-25T19:13:39.140Z,69.80
2023-06-25T19:16:13.137Z,72.83
2023-06-25T19:18:47.669Z,72.30
2023-06-25T19:21:21.052Z,72.80
2023-06-25T19:23:57.119Z,69.43
2023-06-25T19:26:30.759Z,69.03
2023-06-25T19:29:08.090Z,65.77
2023-06-25T19:31:44.955Z,71.70
2023-06-25T19:34:19.802Z,72.67
2023-06-25T19:36:55.223Z,67.73
2023-06-25T19:39:28.157Z,66.90
2023-06-25T19:42:01.759Z,63.53
2023-06-25T19:44:36.837Z,61.27
2023-06-25T19:47:12.009Z,60.37
2023-06-25T19:49:45.294Z,64.60
2023-06-25T19:52:18.514Z,93.87
2023-06-25T19:54:51.909Z,83.93
2023-06-25T19:57:26.482Z,85.13
2023-06-25T20:00:01.441Z,84.20
2023-06-25T20:02:34.752Z,86.77
2023-06-25T20:05:08.127Z,88.53
2023-06-25T20:07:41.696Z,81.47
2023-06-25T20:10:15.722Z,86.03
2023-06-25T20:12:50.861Z,82.13
2023-06-25T20:15:26.294Z,90.30
2023-06-25T20:18:00.153Z,80.70
2023-06-25T20:20:33.515Z,80.20
2023-06-25T20:23:06.919Z,87.53
2023-06-25T20:25:42.094Z,84.63
2023-06-25T20:28:15.389Z,75.57
2023-06-25T20:30:50.901Z,79.83
2023-06-25T20:33:24.458Z,74.17
2023-06-25T20:35:58.651Z,73.83
2023-06-25T20:38:32.007Z,77.27
2023-06-25T20:41:23.113Z,80.33
2023-06-25T20:43:58.535Z,75.10
2023-06-25T20:46:33.639Z,82.30
2023-06-25T20:49:07.091Z,73.90
2023-06-25T20:51:40.455Z,75.57
2023-06-25T20:54:13.740Z,73.80
2023-06-25T20:56:49.036Z,74.40
2023-06-25T20:59:23.538Z,79.30
2023-06-25T21:02:08.809Z,71.23
2023-06-25T21:04:41.832Z,77.73
2023-06-25T21:07:14.758Z,79.03
2023-06-25T21:09:47.636Z,75.27
2023-06-25T21:12:20.578Z,73.60
2023-06-25T21:14:54.539Z,78.47
2023-06-25T21:17:32.290Z,76.50
2023-06-25T21:20:06.884Z,80.37
2023-06-25T21:22:42.530Z,74.60
2023-06-25T21:25:16.208Z,75.43
2023-06-25T21:27:49.734Z,76.10
2023-06-25T21:30:25.111Z,87.87
2023-06-25T21:33:02.460Z,81.37
2023-06-25T21:35:37.745Z,81.20
2023-06-25T21:38:11.392Z,80.03
2023-06-25T21:40:44.809Z,80.53
2023-06-25T21:43:18.090Z,80.20
2023-06-25T21:45:51.228Z,78.97
2023-06-25T21:48:25.945Z,81.37
2023-06-25T21:51:01.238Z,79.57
2023-06-25T21:53:36.677Z,85.57
2023-06-25T21:56:10.118Z,85.90
2023-06-25T21:58:45.119Z,83.97
2023-06-25T22:01:18.760Z,83.30
2023-06-25T22:03:53.865Z,84.43
2023-06-25T22:06:29.882Z,84.53
2023-06-25T22:09:06.466Z,89.53
2023-06-25T22:11:39.241Z,85.37
2023-06-25T22:14:12.476Z,83.47
2023-06-25T22:16:45.774Z,83.13
2023-06-25T22:19:22.766Z,79.10
2023-06-25T22:21:56.223Z,88.70
2023-06-25T22:24:29.206Z,85.13
2023-06-25T22:27:02.406Z,85.30
2023-06-25T22:29:42.455Z,74.23
2023-06-25T22:32:17.077Z,79.17
2023-06-25T22:34:52.282Z,78.37
2023-06-25T22:37:25.518Z,77.50
2023-06-25T22:40:00.922Z,82.07
2023-06-25T22:42:34.137Z,77.27
2023-06-25T22:45:07.183Z,74.90
2023-06-25T22:47:41.457Z,79.22
2023-06-25T22:50:17.777Z,77.65
2023-06-25T22:52:52.132Z,84.53
2023-06-25T22:55:27.599Z,84.17
2023-06-25T22:58:02.315Z,83.75
2023-06-25T23:00:37.605Z,75.57
2023-06-25T23:03:11.317Z,73.85
2023-06-25T23:05:47.449Z,73.57
2023-06-25T23:08:20.606Z,81.40
2023-06-25T23:10:53.641Z,72.90
2023-06-25T23:13:29.716Z,74.55
2023-06-25T23:16:05.760Z,74.13
2023-06-25T23:18:39.120Z,78.57
2023-06-25T23:21:14.939Z,85.97
2023-06-25T23:23:49.162Z,85.15
2023-06-25T23:26:24.494Z,87.28
2023-06-25T23:28:58.496Z,85.82
2023-06-25T23:31:32.677Z,88.45
2023-06-25T23:34:06.123Z,88.05
2023-06-25T23:36:41.302Z,86.55
2023-06-25T23:39:15.273Z,88.32
2023-06-25T23:41:49.045Z,81.07
2023-06-25T23:44:22.365Z,74.80
2023-06-25T23:46:55.682Z,71.85
2023-06-25T23:49:29.358Z,74.78
2023-06-25T23:52:05.768Z,77.47
2023-06-25T23:54:40.950Z,75.90
2023-06-25T23:57:14.276Z,72.10
2023-06-25T23:59:47.717Z,71.85
